Time;durP1;ratioP1;P1;durP2;ratioP2;P2;SDS_P1;SDS_P2;PMS_P1;PMS_P2;Temp;Humidity;BMP_temperature;BMP_pressure;BME280_temperature;BME280_humidity;BME280_pressure;Samples;Min_cycle;Max_cycle;Signal;HPM_P1;HPM_P2
2022/06/30 00:01:42;;;;;;;3.45;3.05;;;18.20;99.90;;;;;;5058772;28;20076;-79
2022/06/30 00:04:07;;;;;;;4.95;3.72;;;18.10;99.90;;;;;;5054110;28;20391;-80
2022/06/30 00:06:33;;;;;;;4.13;3.78;;;18.00;99.90;;;;;;5059649;28;20044;-80
2022/06/30 00:08:59;;;;;;;3.47;3.17;;;18.00;99.90;;;;;;5065656;28;20097;-80
2022/06/30 00:11:25;;;;;;;5.45;3.58;;;18.10;99.90;;;;;;5047887;28;20044;-80
2022/06/30 00:13:51;;;;;;;3.13;2.83;;;18.00;99.90;;;;;;5066139;28;20063;-81
2022/06/30 00:16:16;;;;;;;4.22;3.08;;;18.00;99.90;;;;;;5050060;28;20080;-82
2022/06/30 00:18:45;;;;;;;3.35;2.70;;;18.00;99.90;;;;;;5051206;28;20064;-81
2022/06/30 00:21:11;;;;;;;4.15;3.20;;;18.00;99.90;;;;;;5066423;28;20067;-82
2022/06/30 00:23:36;;;;;;;5.03;3.58;;;18.00;99.90;;;;;;5065651;28;20119;-80
2022/06/30 00:26:03;;;;;;;6.97;4.32;;;18.10;99.90;;;;;;5067264;28;20233;-82
2022/06/30 00:28:29;;;;;;;3.88;3.55;;;18.10;99.90;;;;;;5067174;28;20063;-81
2022/06/30 00:30:56;;;;;;;5.78;3.63;;;18.10;99.90;;;;;;5062287;28;20045;-81
2022/06/30 00:33:23;;;;;;;4.15;3.13;;;18.10;99.90;;;;;;5062884;28;20045;-81
2022/06/30 00:35:52;;;;;;;4.82;3.67;;;18.10;99.90;;;;;;5061535;28;20046;-81
2022/06/30 00:38:17;;;;;;;5.63;3.97;;;18.10;99.90;;;;;;5065216;28;20098;-81
2022/06/30 00:40:45;;;;;;;4.22;2.97;;;18.10;99.90;;;;;;5065212;28;20041;-80
2022/06/30 00:43:11;;;;;;;5.93;3.33;;;18.10;99.90;;;;;;5057077;28;20499;-80
2022/06/30 00:45:45;;;;;;;3.70;2.85;;;18.10;99.90;;;;;;5054029;28;20155;-80
2022/06/30 00:48:12;;;;;;;4.03;3.63;;;18.10;99.90;;;;;;5052167;28;20088;-81
2022/06/30 00:50:38;;;;;;;4.53;3.72;;;18.10;99.90;;;;;;5053460;28;20041;-79
2022/06/30 00:53:05;;;;;;;3.88;3.40;;;18.10;99.90;;;;;;5054300;28;20418;-80
2022/06/30 00:55:32;;;;;;;6.30;3.72;;;18.10;99.90;;;;;;5057072;28;20037;-80
2022/06/30 00:58:01;;;;;;;4.15;3.20;;;18.00;99.90;;;;;;5053327;28;20087;-80
2022/06/30 01:00:31;;;;;;;4.20;3.17;;;18.00;99.90;;;;;;5056031;28;20135;-80
2022/06/30 01:02:59;;;;;;;4.80;3.63;;;18.00;99.90;;;;;;5038271;28;20120;-79
2022/06/30 01:05:26;;;;;;;6.13;4.50;;;18.00;99.90;;;;;;5054047;28;20037;-80
2022/06/30 01:07:53;;;;;;;4.07;3.67;;;18.00;99.90;;;;;;5054154;28;20049;-80
2022/06/30 01:13:03;;;;;;;4.97;3.80;;;17.90;99.90;;;;;;5052841;28;20045;-79
2022/06/30 01:15:28;;;;;;;4.05;3.65;;;17.90;99.90;;;;;;5053475;28;20049;-80
2022/06/30 01:17:54;;;;;;;3.30;3.00;;;18.00;99.90;;;;;;5036602;28;20098;-80
2022/06/30 01:20:28;;;;;;;4.28;2.83;;;17.90;99.90;;;;;;5052469;28;20097;-80
2022/06/30 01:22:59;;;;;;;3.42;2.97;;;18.00;99.90;;;;;;5053001;28;20072;-80
2022/06/30 01:25:25;;;;;;;4.35;3.08;;;18.00;99.90;;;;;;5053950;28;20037;-80
2022/06/30 01:27:55;;;;;;;3.33;3.03;;;18.00;99.90;;;;;;5054641;28;20060;-80
2022/06/30 01:30:22;;;;;;;5.30;3.88;;;18.00;99.90;;;;;;5050762;28;20140;-80
2022/06/30 01:32:48;;;;;;;3.53;3.03;;;18.10;99.90;;;;;;5054376;28;20118;-80
2022/06/30 01:35:13;;;;;;;4.35;2.72;;;18.20;99.90;;;;;;5036457;28;20491;-80
2022/06/30 01:37:56;;;;;;;3.00;2.67;;;18.20;99.90;;;;;;5051879;28;20140;-80
2022/06/30 01:40:23;;;;;;;3.65;3.35;;;18.30;99.90;;;;;;5032808;28;20037;-80
2022/06/30 01:42:50;;;;;;;3.75;3.38;;;18.40;99.90;;;;;;5031382;28;20053;-80
2022/06/30 01:45:16;;;;;;;5.28;3.03;;;18.40;99.90;;;;;;5032174;28;20037;-80
2022/06/30 01:47:42;;;;;;;4.03;3.58;;;18.40;99.90;;;;;;5042873;28;20037;-79
2022/06/30 01:50:11;;;;;;;3.22;2.95;;;18.50;99.90;;;;;;5051254;28;20367;-80
2022/06/30 01:52:37;;;;;;;3.78;3.45;;;18.50;99.90;;;;;;5035485;28;20037;-79
2022/06/30 01:55:03;;;;;;;3.03;2.72;;;18.50;99.90;;;;;;5052220;28;20403;-80
2022/06/30 01:57:28;;;;;;;5.22;4.13;;;18.50;99.90;;;;;;5052694;28;20099;-80
2022/06/30 01:59:54;;;;;;;6.45;3.92;;;18.40;99.90;;;;;;5035752;28;20041;-80
2022/06/30 02:02:20;;;;;;;4.25;2.88;;;18.40;99.90;;;;;;5051623;28;20041;-79
2022/06/30 02:04:50;;;;;;;3.30;2.70;;;18.40;99.90;;;;;;5051869;28;20048;-81
2022/06/30 02:07:17;;;;;;;3.50;3.20;;;18.30;99.90;;;;;;5059232;28;20530;-80
2022/06/30 02:09:43;;;;;;;3.88;3.50;;;18.30;99.90;;;;;;5059840;28;20116;-80
2022/06/30 02:14:53;;;;;;;3.10;2.80;;;18.30;99.90;;;;;;5057601;28;20052;-80
2022/06/30 02:17:19;;;;;;;4.70;3.15;;;18.20;99.90;;;;;;5063662;28;20523;-81
2022/06/30 02:19:45;;;;;;;4.47;2.72;;;18.10;99.90;;;;;;5068704;28;20036;-81
2022/06/30 02:22:10;;;;;;;3.75;2.85;;;18.10;99.90;;;;;;5062704;28;20048;-81
2022/06/30 02:24:36;;;;;;;4.60;3.47;;;18.00;99.90;;;;;;5063320;28;20041;-81
2022/06/30 02:27:02;;;;;;;3.42;2.70;;;18.00;99.90;;;;;;5061276;28;20041;-81
2022/06/30 02:29:27;;;;;;;5.25;3.67;;;17.90;99.90;;;;;;5064095;28;20041;-81
2022/06/30 02:31:53;;;;;;;8.32;4.03;;;17.90;99.90;;;;;;5065514;28;20131;-81
2022/06/30 02:34:19;;;;;;;4.72;3.83;;;17.80;99.90;;;;;;5066484;28;20071;-82
2022/06/30 02:36:44;;;;;;;7.32;3.88;;;17.80;99.90;;;;;;5064876;28;20041;-81
2022/06/30 02:39:10;;;;;;;4.25;3.80;;;17.80;99.90;;;;;;5048671;28;20043;-81
2022/06/30 02:41:36;;;;;;;5.97;4.35;;;17.70;99.90;;;;;;5067646;28;20105;-81
2022/06/30 02:44:02;;;;;;;4.07;3.30;;;17.60;99.90;;;;;;5064961;28;20044;-81
2022/06/30 02:46:28;;;;;;;3.47;3.08;;;17.50;99.90;;;;;;5065627;28;20099;-81
2022/06/30 02:48:54;;;;;;;4.35;3.95;;;17.50;99.90;;;;;;5065763;28;20045;-81
2022/06/30 02:51:19;;;;;;;4.30;3.90;;;17.50;99.90;;;;;;5065350;28;20133;-81
2022/06/30 02:53:45;;;;;;;5.47;4.05;;;17.40;99.90;;;;;;5066013;28;20123;-82
2022/06/30 02:56:11;;;;;;;4.80;4.30;;;17.30;99.90;;;;;;5066266;28;20041;-81
2022/06/30 02:58:38;;;;;;;5.03;4.05;;;17.20;99.90;;;;;;5059063;28;20079;-81
2022/06/30 03:01:04;;;;;;;5.20;4.70;;;17.10;99.90;;;;;;5066120;28;20045;-81
2022/06/30 03:03:29;;;;;;;6.03;4.93;;;17.00;99.90;;;;;;5049971;28;20498;-81
2022/06/30 03:05:55;;;;;;;4.60;4.20;;;17.00;99.90;;;;;;5068492;28;20044;-81
2022/06/30 03:08:20;;;;;;;5.40;4.25;;;16.90;99.90;;;;;;5050874;28;20040;-81
2022/06/30 03:10:46;;;;;;;3.95;3.65;;;16.80;99.90;;;;;;5065843;28;20044;-81
2022/06/30 03:13:12;;;;;;;5.82;5.10;;;16.80;99.90;;;;;;5064965;28;20124;-81
2022/06/30 03:15:37;;;;;;;5.55;4.53;;;16.80;99.90;;;;;;5067239;28;20075;-81
2022/06/30 03:18:03;;;;;;;5.13;4.32;;;16.70;99.90;;;;;;5062687;28;20502;-81
2022/06/30 03:20:29;;;;;;;5.20;4.70;;;16.70;99.90;;;;;;5064373;28;20047;-81
2022/06/30 03:22:54;;;;;;;5.85;5.28;;;16.70;99.90;;;;;;5063116;28;20443;-80
2022/06/30 03:25:20;;;;;;;5.50;4.82;;;16.70;99.90;;;;;;5062844;28;20037;-81
2022/06/30 03:27:45;;;;;;;5.57;4.28;;;16.70;99.90;;;;;;5068292;28;20036;-81
2022/06/30 03:30:11;;;;;;;5.55;4.63;;;16.70;99.90;;;;;;5064527;28;20052;-80
2022/06/30 03:32:37;;;;;;;5.63;4.78;;;16.70;99.90;;;;;;5063907;28;20123;-81
2022/06/30 03:35:04;;;;;;;7.13;4.72;;;16.70;99.90;;;;;;5064323;28;20098;-81
2022/06/30 03:37:30;;;;;;;5.72;5.22;;;16.70;99.90;;;;;;5063368;28;20040;-81
2022/06/30 03:39:57;;;;;;;4.53;4.13;;;16.70;99.90;;;;;;5062978;28;20116;-81
2022/06/30 03:42:23;;;;;;;4.93;4.50;;;16.60;99.90;;;;;;5063871;28;20510;-80
2022/06/30 03:44:48;;;;;;;7.30;4.97;;;16.60;99.90;;;;;;5061934;28;20116;-80
2022/06/30 03:47:14;;;;;;;8.77;5.70;;;16.60;99.90;;;;;;5060280;28;20068;-81
2022/06/30 03:49:40;;;;;;;5.22;4.70;;;16.60;99.90;;;;;;5062589;28;20037;-79
2022/06/30 03:52:05;;;;;;;4.97;4.50;;;16.60;99.90;;;;;;5063084;28;20049;-80
2022/06/30 03:54:31;;;;;;;10.65;6.03;;;16.60;99.90;;;;;;5062136;28;20044;-80
2022/06/30 03:56:56;;;;;;;9.65;4.88;;;16.70;99.90;;;;;;5061800;28;20105;-80
2022/06/30 03:59:22;;;;;;;5.07;4.57;;;16.70;99.90;;;;;;5064771;28;20110;-80
2022/06/30 04:01:48;;;;;;;6.28;5.68;;;16.70;99.90;;;;;;5062956;28;20045;-80
2022/06/30 04:04:13;;;;;;;5.68;5.07;;;16.80;99.90;;;;;;5062704;28;20041;-79
2022/06/30 04:06:39;;;;;;;4.85;4.38;;;16.80;99.90;;;;;;5062045;28;20045;-81
2022/06/30 04:09:04;;;;;;;5.57;5.05;;;16.80;99.90;;;;;;5061863;28;20049;-80
2022/06/30 04:11:30;;;;;;;5.28;4.78;;;16.80;99.90;;;;;;5065634;28;20124;-81
2022/06/30 04:13:56;;;;;;;5.00;4.47;;;16.90;99.90;;;;;;5065432;28;20537;-80
2022/06/30 04:16:21;;;;;;;5.68;4.88;;;16.90;99.90;;;;;;5062620;28;20045;-81
2022/06/30 04:18:47;;;;;;;5.53;5.00;;;17.00;99.90;;;;;;5062135;28;20097;-80
2022/06/30 04:21:15;;;;;;;5.18;4.68;;;17.00;99.90;;;;;;5044990;28;20121;-80
2022/06/30 04:23:41;;;;;;;6.47;4.72;;;17.00;99.90;;;;;;5043214;28;20052;-80
2022/06/30 04:26:06;;;;;;;6.45;5.85;;;17.00;99.90;;;;;;5045405;28;20037;-81
2022/06/30 04:28:32;;;;;;;5.70;4.22;;;17.10;99.90;;;;;;5070247;28;20070;-80
2022/06/30 04:33:42;;;;;;;6.25;4.68;;;17.10;99.90;;;;;;5063142;28;20044;-80
2022/06/30 04:36:07;;;;;;;5.78;5.13;;;17.20;99.90;;;;;;5061211;28;20360;-80
2022/06/30 04:38:33;;;;;;;6.93;5.28;;;17.20;99.90;;;;;;5060089;28;20048;-80
2022/06/30 04:43:42;;;;;;;5.72;4.80;;;17.40;99.90;;;;;;5061113;28;20045;-81
2022/06/30 04:46:08;;;;;;;6.95;5.13;;;17.40;99.90;;;;;;5068695;28;20043;-80
2022/06/30 04:48:33;;;;;;;6.30;5.20;;;17.50;99.90;;;;;;5058627;28;20048;-80
2022/06/30 04:50:59;;;;;;;7.40;5.10;;;17.50;99.90;;;;;;5063320;28;20041;-80
2022/06/30 04:53:25;;;;;;;7.15;5.32;;;17.60;99.90;;;;;;5045690;28;20041;-80
2022/06/30 04:55:50;;;;;;;5.85;5.07;;;17.70;99.90;;;;;;5062922;28;20495;-79
2022/06/30 04:58:16;;;;;;;4.90;4.43;;;17.70;99.90;;;;;;5061105;28;20040;-81
2022/06/30 05:00:41;;;;;;;7.55;5.28;;;17.80;99.90;;;;;;5063009;28;20033;-80
2022/06/30 05:03:07;;;;;;;9.98;5.85;;;17.90;99.90;;;;;;5044376;28;20044;-81
2022/06/30 05:05:32;;;;;;;9.10;5.25;;;18.00;99.90;;;;;;5062883;28;20125;-80
2022/06/30 05:07:58;;;;;;;5.18;4.65;;;18.10;99.90;;;;;;5063208;28;20067;-80
2022/06/30 05:10:24;;;;;;;6.53;4.68;;;18.20;99.90;;;;;;5063710;28;20045;-82
2022/06/30 05:12:49;;;;;;;6.63;4.28;;;18.20;99.90;;;;;;5069147;28;20032;-81
2022/06/30 05:15:15;;;;;;;11.00;4.57;;;18.30;99.90;;;;;;5065012;28;20032;-81
2022/06/30 05:17:40;;;;;;;8.30;4.25;;;18.50;99.90;;;;;;5048345;28;20128;-82
2022/06/30 05:20:06;;;;;;;4.70;4.20;;;18.50;99.90;;;;;;5062502;28;20040;-81
2022/06/30 05:22:32;;;;;;;5.68;4.97;;;18.60;99.90;;;;;;5046456;28;20041;-80
2022/06/30 05:27:46;;;;;;;8.07;4.55;;;18.60;99.90;;;;;;5059954;28;20049;-80
2022/06/30 05:30:12;;;;;;;5.22;4.72;;;18.60;99.90;;;;;;5063296;28;20080;-79
2022/06/30 05:32:38;;;;;;;7.40;5.40;;;18.50;99.90;;;;;;5060493;28;20060;-79
2022/06/30 05:35:04;;;;;;;6.13;4.85;;;18.50;99.90;;;;;;5060235;28;20049;-80
2022/06/30 05:37:30;;;;;;;5.35;4.85;;;18.50;99.90;;;;;;5062755;28;20041;-80
2022/06/30 05:39:56;;;;;;;6.53;5.50;;;18.60;99.90;;;;;;5041422;28;20087;-79
2022/06/30 05:42:21;;;;;;;5.90;5.28;;;18.70;99.90;;;;;;5054932;28;20052;-81
2022/06/30 05:44:48;;;;;;;5.70;5.10;;;18.70;99.90;;;;;;5059308;28;20455;-80
2022/06/30 05:47:13;;;;;;;6.68;5.43;;;18.80;99.90;;;;;;5059059;28;20136;-80
2022/06/30 05:49:39;;;;;;;6.40;5.20;;;18.90;99.90;;;;;;5057963;28;20057;-81
2022/06/30 05:52:05;;;;;;;5.72;4.40;;;19.00;99.90;;;;;;5058797;28;20041;-80
2022/06/30 05:54:30;;;;;;;7.45;6.10;;;19.10;99.90;;;;;;5058985;28;20099;-81
2022/06/30 05:56:56;;;;;;;7.10;6.25;;;19.30;99.90;;;;;;5058129;28;20045;-81
2022/06/30 05:59:22;;;;;;;6.22;4.22;;;19.40;99.90;;;;;;5058133;28;20467;-80
2022/06/30 06:01:47;;;;;;;4.82;4.30;;;19.40;99.90;;;;;;5058748;28;20446;-79
2022/06/30 06:04:13;;;;;;;7.10;4.75;;;19.60;99.90;;;;;;5059412;28;20041;-81
2022/06/30 06:06:38;;;;;;;6.28;4.65;;;19.70;99.90;;;;;;5057361;28;20045;-81
2022/06/30 06:09:04;;;;;;;6.05;4.53;;;19.80;99.90;;;;;;5057766;28;20048;-81
2022/06/30 06:11:32;;;;;;;5.25;4.75;;;20.00;99.90;;;;;;5058113;28;20045;-81
2022/06/30 06:13:59;;;;;;;5.55;4.70;;;20.10;99.90;;;;;;5059602;28;20052;-81
2022/06/30 06:16:25;;;;;;;6.05;4.38;;;20.20;99.90;;;;;;5058540;28;20044;-80
2022/06/30 06:18:51;;;;;;;4.47;3.80;;;20.20;99.90;;;;;;5057479;28;20081;-80
2022/06/30 06:21:17;;;;;;;6.82;4.63;;;20.30;99.90;;;;;;5057076;28;20120;-80
2022/06/30 06:23:42;;;;;;;6.10;3.63;;;20.40;99.90;;;;;;5056261;28;20099;-81
2022/06/30 06:26:08;;;;;;;5.93;3.85;;;20.50;99.90;;;;;;5040672;28;20055;-80
2022/06/30 06:31:17;;;;;;;4.38;3.97;;;20.80;99.90;;;;;;5057778;28;20487;-80
2022/06/30 06:33:45;;;;;;;4.97;4.00;;;21.10;99.90;;;;;;5056133;28;20120;-80
2022/06/30 06:36:11;;;;;;;6.47;3.83;;;21.30;99.90;;;;;;5040345;28;20037;-81
2022/06/30 06:38:37;;;;;;;5.55;4.35;;;21.60;99.90;;;;;;5057146;28;20057;-80
2022/06/30 06:41:04;;;;;;;4.82;3.55;;;21.80;99.90;;;;;;5056959;28;20159;-81
2022/06/30 06:43:30;;;;;;;6.15;3.83;;;22.00;99.90;;;;;;5056626;28;20113;-80
2022/06/30 06:45:55;;;;;;;5.10;4.55;;;22.10;99.90;;;;;;5057345;28;20041;-80
2022/06/30 06:48:22;;;;;;;5.25;4.03;;;22.20;99.90;;;;;;5056420;28;20044;-81
2022/06/30 06:50:47;;;;;;;4.18;3.80;;;22.30;99.90;;;;;;5057371;28;20491;-81
2022/06/30 06:53:13;;;;;;;4.20;3.80;;;22.50;99.90;;;;;;5059384;28;20044;-80
2022/06/30 06:55:38;;;;;;;8.90;4.47;;;22.50;99.90;;;;;;5061268;28;20056;-80
2022/06/30 06:58:05;;;;;;;6.97;4.20;;;22.60;99.90;;;;;;5060711;28;20048;-81
2022/06/30 07:00:30;;;;;;;4.15;3.72;;;22.70;99.90;;;;;;5061650;28;20049;-81
2022/06/30 07:02:56;;;;;;;4.20;3.38;;;23.00;99.90;;;;;;5061198;28;20049;-81
2022/06/30 07:05:22;;;;;;;6.28;3.45;;;23.10;99.90;;;;;;5060803;28;20041;-81
2022/06/30 07:07:56;;;;;;;9.25;3.92;;;23.30;99.90;;;;;;5047290;28;20044;-80
2022/06/30 07:10:21;;;;;;;3.80;2.63;;;23.50;99.90;;;;;;5062756;28;20044;-80
2022/06/30 07:12:47;;;;;;;7.80;5.38;;;23.60;99.90;;;;;;5060855;28;20056;-80
2022/06/30 07:15:12;;;;;;;6.35;4.30;;;23.70;99.90;;;;;;5062318;28;20109;-81
2022/06/30 07:17:38;;;;;;;8.77;3.80;;;23.70;99.90;;;;;;5062884;28;20048;-80
2022/06/30 07:20:04;;;;;;;8.68;4.93;;;23.80;99.90;;;;;;5062232;28;20120;-80
2022/06/30 07:22:30;;;;;;;5.00;4.03;;;24.00;99.90;;;;;;5061971;28;20094;-81
2022/06/30 07:24:56;;;;;;;5.60;3.88;;;24.20;99.90;;;;;;5063749;28;20032;-81
2022/06/30 07:27:21;;;;;;;4.35;3.25;;;24.40;99.90;;;;;;5062486;28;20037;-81
2022/06/30 07:29:47;;;;;;;4.88;4.40;;;24.50;99.90;;;;;;5062482;28;20557;-82
2022/06/30 07:32:13;;;;;;;7.13;4.80;;;24.60;99.90;;;;;;5059861;28;20048;-81
2022/06/30 07:34:38;;;;;;;4.93;4.43;;;24.70;99.90;;;;;;5060585;28;20199;-81
2022/06/30 07:37:04;;;;;;;5.50;3.80;;;24.70;99.90;;;;;;5061209;28;20100;-80
2022/06/30 07:39:30;;;;;;;5.35;3.80;;;24.80;99.90;;;;;;5059709;28;20048;-80
2022/06/30 07:41:55;;;;;;;5.80;4.28;;;24.90;99.90;;;;;;5059156;28;20464;-81
2022/06/30 07:44:21;;;;;;;5.40;3.40;;;25.00;99.90;;;;;;5059826;28;20442;-80
2022/06/30 07:46:46;;;;;;;6.07;3.88;;;25.10;99.90;;;;;;5059349;28;20037;-80
2022/06/30 07:49:12;;;;;;;4.75;4.15;;;25.20;99.90;;;;;;5059823;28;20475;-81
2022/06/30 07:51:38;;;;;;;7.28;4.93;;;25.40;99.90;;;;;;5043343;28;20475;-81
2022/06/30 07:54:04;;;;;;;5.55;4.40;;;25.50;99.90;;;;;;5059677;28;20041;-81
2022/06/30 07:56:31;;;;;;;12.30;5.15;;;25.60;99.90;;;;;;5059862;28;20044;-80
2022/06/30 07:58:57;;;;;;;8.85;4.28;;;25.80;99.90;;;;;;5043814;28;20094;-81
2022/06/30 08:01:23;;;;;;;6.65;5.20;;;26.00;99.90;;;;;;5060059;28;20060;-80
2022/06/30 08:03:49;;;;;;;6.68;4.57;;;26.30;99.90;;;;;;5059212;28;20045;-81
2022/06/30 08:06:15;;;;;;;8.15;4.57;;;26.40;99.90;;;;;;5060161;28;20126;-80
2022/06/30 08:08:41;;;;;;;7.80;4.95;;;26.60;99.90;;;;;;5060375;28;20064;-81
2022/06/30 08:11:07;;;;;;;6.50;4.28;;;26.80;99.90;;;;;;5060171;28;20086;-81
2022/06/30 08:13:33;;;;;;;5.20;4.25;;;26.90;99.90;;;;;;5059636;28;20041;-80
2022/06/30 08:15:58;;;;;;;6.15;4.18;;;27.20;99.90;;;;;;5043999;28;20053;-81
2022/06/30 08:18:24;;;;;;;7.55;5.93;;;27.40;99.90;;;;;;5060302;28;20045;-81
2022/06/30 08:20:50;;;;;;;5.13;4.63;;;27.60;99.90;;;;;;5060416;28;20037;-81
2022/06/30 08:23:15;;;;;;;6.68;4.78;;;27.60;99.90;;;;;;5059920;28;20045;-81
2022/06/30 08:25:41;;;;;;;8.30;5.18;;;27.70;99.90;;;;;;5059222;28;20068;-81
2022/06/30 08:28:08;;;;;;;5.13;4.72;;;27.80;99.90;;;;;;5057832;28;20037;-81
2022/06/30 08:30:34;;;;;;;15.50;6.53;;;27.80;99.90;;;;;;5043196;28;20079;-81
2022/06/30 08:33:00;;;;;;;5.63;5.03;;;27.80;99.90;;;;;;5041758;28;20056;-81
2022/06/30 08:35:26;;;;;;;5.40;4.88;;;28.00;99.90;;;;;;5058441;28;20045;-81
2022/06/30 08:37:52;;;;;;;8.82;4.55;;;28.00;99.90;;;;;;5059831;28;20115;-82
2022/06/30 08:43:03;;;;;;;5.90;4.40;;;28.10;99.90;;;;;;5057798;28;20049;-81
2022/06/30 08:45:29;;;;;;;5.53;5.03;;;28.20;99.80;;;;;;5058836;28;20045;-81
2022/06/30 08:47:55;;;;;;;5.50;4.22;;;28.40;99.10;;;;;;5059108;28;20041;-81
2022/06/30 08:50:21;;;;;;;6.97;4.45;;;28.40;99.00;;;;;;5057712;28;20104;-82
2022/06/30 08:52:51;;;;;;;10.32;6.13;;;28.40;98.90;;;;;;5041416;28;20048;-81
2022/06/30 08:55:20;;;;;;;13.15;7.03;;;28.40;97.80;;;;;;5058880;28;20371;-81
2022/06/30 08:57:47;;;;;;;6.68;4.47;;;28.50;99.40;;;;;;5059324;28;20053;-81
2022/06/30 09:00:16;;;;;;;10.52;5.03;;;28.70;99.90;;;;;;5060076;28;20041;-81
2022/06/30 09:02:42;;;;;;;5.72;5.20;;;28.90;99.90;;;;;;5058985;28;20056;-81
2022/06/30 09:05:09;;;;;;;5.90;4.68;;;29.10;99.70;;;;;;5058962;28;20040;-81
2022/06/30 09:07:35;;;;;;;5.32;4.82;;;29.30;98.70;;;;;;5058052;28;20064;-82
2022/06/30 09:10:05;;;;;;;8.00;5.38;;;29.40;96.40;;;;;;5056992;28;20041;-81
2022/06/30 09:12:31;;;;;;;8.70;6.32;;;29.40;97.20;;;;;;5058610;28;20398;-81
2022/06/30 09:14:56;;;;;;;9.60;5.22;;;29.60;96.00;;;;;;5057761;28;20061;-81
2022/06/30 09:17:25;;;;;;;6.55;4.68;;;29.60;95.10;;;;;;5058268;28;20066;-81
2022/06/30 09:19:53;;;;;;;5.30;4.80;;;29.60;94.90;;;;;;5058161;28;20178;-81
2022/06/30 09:22:22;;;;;;;5.85;5.35;;;29.70;96.10;;;;;;5058380;28;20057;-82
2022/06/30 09:24:55;;;;;;;6.28;5.68;;;30.00;95.10;;;;;;5058487;28;20037;-82
2022/06/30 09:27:21;;;;;;;5.95;5.25;;;30.00;93.60;;;;;;5040691;28;20538;-81
2022/06/30 09:30:00;;;;;;;10.20;6.78;;;30.20;94.30;;;;;;5058675;28;20048;-81
2022/06/30 09:32:25;;;;;;;15.07;7.75;;;30.40;94.20;;;;;;5057941;28;20377;-81
2022/06/30 09:34:53;;;;;;;8.23;6.85;;;30.60;93.50;;;;;;5059020;28;20049;-81
2022/06/30 09:37:27;;;;;;;7.50;6.72;;;30.80;92.60;;;;;;5058182;28;20510;-82
2022/06/30 09:39:54;;;;;;;6.78;6.18;;;31.10;93.50;;;;;;5042123;28;20060;-81
2022/06/30 09:42:37;;;;;;;5.95;4.93;;;31.30;93.90;;;;;;5059060;28;20084;-81
2022/06/30 09:45:04;;;;;;;6.75;6.15;;;31.50;92.20;;;;;;5058451;28;20045;-81
2022/06/30 09:47:30;;;;;;;9.93;7.32;;;31.60;93.00;;;;;;5058428;28;20104;-81
2022/06/30 09:50:03;;;;;;;6.80;6.13;;;31.60;92.40;;;;;;5057703;28;20041;-81
2022/06/30 09:52:29;;;;;;;7.13;6.55;;;31.70;91.80;;;;;;5058773;28;20501;-81
2022/06/30 09:54:59;;;;;;;10.65;7.55;;;31.80;91.10;;;;;;5059008;28;20132;-82
2022/06/30 09:57:41;;;;;;;24.38;10.65;;;31.90;89.10;;;;;;5041365;28;20124;-82
2022/06/30 10:00:16;;;;;;;12.15;9.10;;;32.00;83.40;;;;;;5058391;28;20072;-82
2022/06/30 10:02:49;;;;;;;7.47;6.10;;;32.10;84.20;;;;;;5057618;28;20056;-81
2022/06/30 10:05:17;;;;;;;8.30;6.63;;;32.20;84.80;;;;;;5058827;28;20072;-82
2022/06/30 10:07:43;;;;;;;9.13;8.27;;;32.30;83.00;;;;;;5057598;28;20279;-82
2022/06/30 10:10:17;;;;;;;16.80;8.23;;;32.30;80.90;;;;;;5059209;28;20469;-82
2022/06/30 10:12:45;;;;;;;20.20;12.07;;;32.20;81.50;;;;;;5056577;28;20167;-81
2022/06/30 10:15:12;;;;;;;11.43;8.10;;;32.20;81.70;;;;;;5055845;28;20069;-81
2022/06/30 10:17:44;;;;;;;20.27;11.02;;;32.30;75.40;;;;;;5040037;28;20072;-82
2022/06/30 10:20:10;;;;;;;7.72;7.03;;;32.40;74.80;;;;;;5055823;28;20067;-83
2022/06/30 10:22:38;;;;;;;7.93;7.10;;;32.50;80.10;;;;;;5056109;28;20127;-83
2022/06/30 10:25:04;;;;;;;10.18;8.52;;;32.60;76.60;;;;;;5058711;28;20115;-82
2022/06/30 10:27:30;;;;;;;6.72;6.13;;;32.80;76.80;;;;;;5057661;28;20048;-82
2022/06/30 10:29:57;;;;;;;8.25;6.78;;;32.90;73.90;;;;;;5059370;28;20033;-82
2022/06/30 10:32:43;;;;;;;5.80;5.22;;;33.10;74.50;;;;;;5060137;28;20124;-83
2022/06/30 10:35:11;;;;;;;14.85;8.55;;;33.30;73.00;;;;;;5060804;28;20070;-82
2022/06/30 10:37:49;;;;;;;7.88;7.18;;;33.50;71.30;;;;;;5061674;28;20049;-82
2022/06/30 10:40:36;;;;;;;7.25;6.65;;;33.70;71.20;;;;;;5061102;28;20040;-83
2022/06/30 10:43:02;;;;;;;6.13;5.55;;;33.70;67.70;;;;;;5059934;28;20056;-81
2022/06/30 10:45:30;;;;;;;7.72;6.07;;;33.50;68.70;;;;;;5059188;28;20090;-81
2022/06/30 10:47:57;;;;;;;7.53;6.70;;;33.70;69.40;;;;;;5060514;28;20084;-82
2022/06/30 10:50:51;;;;;;;7.70;7.10;;;33.90;69.50;;;;;;5060505;28;20083;-83
2022/06/30 10:53:33;;;;;;;6.85;6.15;;;34.30;69.70;;;;;;5056089;28;20061;-81
2022/06/30 10:55:59;;;;;;;7.13;6.53;;;34.40;70.20;;;;;;5040810;28;20048;-82
2022/06/30 10:58:24;;;;;;;6.18;5.68;;;34.10;65.50;;;;;;5058323;28;20067;-84
2022/06/30 11:01:05;;;;;;;5.70;5.30;;;33.70;68.50;;;;;;5055036;28;20045;-84
2022/06/30 11:03:34;;;;;;;22.25;11.70;;;33.80;70.70;;;;;;5053994;28;20053;-83
2022/06/30 11:06:09;;;;;;;18.20;9.77;;;34.10;67.00;;;;;;5054104;28;20097;-83
2022/06/30 11:11:22;;;;;;;7.22;6.65;;;34.20;65.30;;;;;;5054360;28;20045;-83
2022/06/30 11:13:50;;;;;;;7.40;6.65;;;34.20;63.20;;;;;;5053945;28;20051;-84
2022/06/30 11:16:18;;;;;;;8.75;8.00;;;34.10;60.40;;;;;;5053874;28;20045;-84
2022/06/30 11:18:44;;;;;;;6.32;5.82;;;33.90;59.80;;;;;;5037528;28;20044;-83
2022/06/30 11:21:09;;;;;;;6.38;5.78;;;33.90;63.40;;;;;;5053957;28;20041;-83
2022/06/30 11:23:41;;;;;;;6.10;5.60;;;34.20;64.00;;;;;;5053949;28;20252;-83
2022/06/30 11:28:57;;;;;;;5.20;4.75;;;34.80;64.50;;;;;;5055911;28;20438;-84
2022/06/30 11:31:33;;;;;;;5.80;5.40;;;35.00;63.70;;;;;;5054111;28;20094;-84
2022/06/30 11:34:07;;;;;;;4.65;4.25;;;35.20;61.00;;;;;;5053521;28;20051;-84
2022/06/30 11:36:35;;;;;;;5.75;5.25;;;35.00;61.30;;;;;;5053335;28;20063;-84
2022/06/30 11:39:07;;;;;;;5.95;5.45;;;34.50;61.60;;;;;;5053136;28;20041;-84
2022/06/30 11:44:21;;;;;;;6.43;5.93;;;33.80;62.50;;;;;;5055732;28;20045;-84
2022/06/30 11:46:50;;;;;;;5.35;4.85;;;33.30;64.10;;;;;;5056641;28;20072;-83
2022/06/30 11:49:16;;;;;;;6.32;5.85;;;32.70;65.30;;;;;;5055801;28;20048;-83
2022/06/30 11:51:43;;;;;;;5.95;5.45;;;32.20;66.60;;;;;;5056362;28;20045;-83
2022/06/30 11:54:09;;;;;;;6.70;6.03;;;32.00;68.40;;;;;;5056447;28;20036;-84
2022/06/30 11:56:53;;;;;;;7.20;6.70;;;31.90;71.20;;;;;;5055071;28;20101;-84
2022/06/30 11:59:19;;;;;;;6.85;6.25;;;31.80;70.30;;;;;;5055141;28;20059;-83
2022/06/30 12:02:06;;;;;;;7.93;7.32;;;31.60;70.50;;;;;;5054733;28;20041;-84
2022/06/30 12:04:33;;;;;;;7.60;5.68;;;31.70;67.10;;;;;;5054138;28;20053;-83
2022/06/30 12:07:01;;;;;;;7.15;6.65;;;31.70;67.20;;;;;;5053580;28;20086;-83
2022/06/30 12:09:27;;;;;;;7.45;6.47;;;32.40;66.40;;;;;;5053529;28;20110;-83
2022/06/30 12:11:53;;;;;;;6.57;6.07;;;33.20;63.90;;;;;;5053314;28;20512;-83
2022/06/30 12:14:19;;;;;;;6.43;5.93;;;33.40;62.90;;;;;;5052919;28;20132;-83
2022/06/30 12:16:45;;;;;;;6.70;6.10;;;33.40;63.50;;;;;;5053045;28;20471;-83
2022/06/30 12:19:15;;;;;;;6.35;5.75;;;33.60;66.20;;;;;;5052647;28;20048;-83
2022/06/30 12:21:40;;;;;;;6.88;6.38;;;33.60;65.80;;;;;;5051710;28;20553;-83
2022/06/30 12:24:07;;;;;;;6.93;6.30;;;33.20;63.30;;;;;;5052720;28;20049;-83
2022/06/30 12:26:33;;;;;;;10.30;6.43;;;32.80;63.20;;;;;;5052687;28;20218;-83
2022/06/30 12:28:59;;;;;;;7.65;7.07;;;32.50;67.50;;;;;;5053442;28;20075;-83
2022/06/30 12:31:29;;;;;;;6.72;6.13;;;32.20;67.90;;;;;;5053629;28;20392;-83
2022/06/30 12:33:56;;;;;;;6.30;5.82;;;32.20;65.60;;;;;;5053471;28;20116;-83
2022/06/30 12:36:23;;;;;;;6.28;5.80;;;32.10;64.60;;;;;;5053277;28;20116;-83
2022/06/30 12:38:49;;;;;;;5.30;4.90;;;31.90;66.60;;;;;;5053670;28;20497;-83
2022/06/30 12:41:15;;;;;;;6.35;5.78;;;31.80;66.50;;;;;;5052636;28;20069;-83
2022/06/30 12:43:49;;;;;;;6.55;6.03;;;32.00;69.90;;;;;;5052632;28;20044;-84
2022/06/30 12:46:19;;;;;;;7.93;7.32;;;32.60;70.40;;;;;;5052743;28;20040;-83
2022/06/30 12:48:53;;;;;;;6.65;5.90;;;33.30;64.20;;;;;;5052402;28;20041;-83
2022/06/30 12:51:28;;;;;;;5.80;5.30;;;33.70;61.40;;;;;;5036100;28;20044;-83
2022/06/30 12:54:10;;;;;;;7.00;6.30;;;34.00;61.80;;;;;;5051185;28;20131;-84
2022/06/30 12:56:37;;;;;;;10.30;7.03;;;34.40;60.50;;;;;;5035445;28;20052;-84
2022/06/30 12:59:05;;;;;;;7.60;6.85;;;34.70;61.50;;;;;;5052075;28;20045;-83
2022/06/30 13:01:34;;;;;;;10.70;7.82;;;35.00;59.40;;;;;;5052659;28;20083;-84
2022/06/30 13:04:02;;;;;;;6.80;6.07;;;35.40;59.30;;;;;;5052443;28;20091;-84
2022/06/30 13:06:39;;;;;;;4.45;4.05;;;35.70;57.10;;;;;;5052889;28;20040;-83
2022/06/30 13:09:07;;;;;;;4.90;4.50;;;35.70;56.60;;;;;;5052474;28;20037;-83
2022/06/30 13:11:42;;;;;;;7.20;5.18;;;35.50;57.40;;;;;;5051184;28;20533;-84
2022/06/30 13:14:08;;;;;;;5.18;4.78;;;35.20;56.80;;;;;;5051739;28;20051;-83